Sparta, WI (54656)

7:07 AM CDT on May 26, 2017 (GMT -0500)
Sparta-Fort McCoy | | Change Station
Active Advisory: Special Statement Active Notice: Public Information Statement

Elev 837 ft 43.96 °N, 90.74 °W | Updated 12 minutes ago

Clear
Clear
53 °F
Feels Like 53 °F
N
0
Wind Variable Wind from North

Today
High -- | Low -- °F
--% Chance of Precip.
Yesterday
High -- | Low -- °F
Precip. -- in
Pressure 29.79 in
Visibility 5.0 miles
Clouds Clear
Dew Point 53 °F
Humidity 100%
Rainfall 0.16 in
Snow Depth Not available.
5:27 AM 8:34 PM
New Moon, 1% visible
METAR KCMY 261155Z AUTO 00000KT 5SM BR CLR 12/12 A2979 RMK AO2 60007 70007 T01190119 10126 20105
Pressure 29.79 in
Visibility 5.0 miles
Clouds Clear
Dew Point 53 °F
Humidity 100%
Rainfall 0.16 in
Snow Depth Not available.
5:27 AM 8:34 PM
New Moon, 1% visible
METAR KCMY 261155Z AUTO 00000KT 5SM BR CLR 12/12 A2979 RMK AO2 60007 70007 T01190119 10126 20105

Get Your Daily Forecast Email!

Thanks for signing up!

Be on the lookout for a verification email in your inbox.

You'll start receiving severe weather alerts in your inbox..

×

10-Day Weather Forecast

Almanac

Astronomy

May. 26, 2017 Rise Set
Actual Time
Civil Twilight
Nautical Twilight
Astronomical Twilight
Moon
Length of Visible Light
Length of Day
Tomorrow will be .
, % of the Moon is Illuminated

Today's Extremes

State Highs State Lows

Community

WunderPhotos

Category 6

Welcome to Category 6. This is the collective home for Weather Underground's featured writeups by Dr. Jeff Masters (right), Bob Henson (left), Chris Burt, and other regular contributors.

Nearby

Air Quality

  Air Quality AQ Index Pollutant
Not available.

Snow Depth

Station Depth Elevation

Earthquake Activity

City Distance Mag. Time & Date
Minimum magnitude displayed is 2.5.

Coastal Water Temperatures

Place Temperature

Stations

Nearby Weather Stations

Station Location Temp. Windchill Dew Point Humidity Wind Precip. Elev Updated Type
                   

Watches & Warnings

Special Statement
Issued: 5:29 AM CDT May. 26, 2017 – National Weather Service

... Patchy areas of dense fog early this morning...

Through 8 am, patchy areas of dense fog will be seen in central
and southwest Wisconsin. This fog will reduce visibilities to a
quarter mile or less.

Be alert for rapidly changing visibilities this morning and allow
extra time to reach your destination.


Boyne


529 am CDT Fri may 26 2017

... Patchy areas of dense fog early this morning...

Through 8 am, patchy areas of dense fog will be seen in central
and southwest Wisconsin. This fog will reduce visibilities to a
quarter mile or less.

Be alert for rapidly changing visibilities this morning and allow
extra time to reach your destination.


Boyne